Time;durP1;ratioP1;P1;durP2;ratioP2;P2;SDS_P1;SDS_P2;PMS_P1;PMS_P2;Temp;Humidity;BMP_temperature;BMP_pressure;BME280_temperature;BME280_humidity;BME280_pressure;Samples;Min_cycle;Max_cycle;Signal;HPM_P1;HPM_P2
2023/01/17 00:01:28;;;;;;;14.40;5.25;;;;;;;9.35;73.29;95624.50;5304667;27;20073;-84
2023/01/17 00:12:12;;;;;;;18.58;7.35;;;;;;;10.59;71.13;95617.34;5304600;27;20098;-84
2023/01/17 00:14:39;;;;;;;;;;;;;;;10.83;69.12;95623.09;5304979;27;20040;-84
2023/01/17 00:17:05;;;;;;;14.02;4.90;;;;;;;9.31;74.02;95606.88;5304361;27;20322;-84
2023/01/17 01:34:52;;;;;;;14.18;5.37;;;;;;;10.52;68.28;95622.19;5306810;27;20075;-83
2023/01/17 01:37:19;;;;;;;15.82;5.43;;;;;;;10.09;69.92;95617.84;5306347;27;20103;-83
2023/01/17 01:39:47;;;;;;;;;;;;;;;9.92;71.04;95623.53;5308393;27;20044;-83
2023/01/17 01:42:14;;;;;;;17.10;5.78;;;;;;;9.47;72.81;95621.03;5307995;27;20316;-83
2023/01/17 01:44:44;;;;;;;18.30;5.95;;;;;;;9.64;73.07;95621.47;5287024;27;20416;-83
2023/01/17 01:47:18;;;;;;;15.73;5.40;;;;;;;8.58;77.47;95610.63;5305933;27;20397;-83
2023/01/17 01:49:47;;;;;;;14.48;5.68;;;;;;;8.85;77.37;95615.47;5305701;27;20056;-83
2023/01/17 01:52:14;;;;;;;16.27;5.75;;;;;;;8.78;77.73;95609.16;5304942;27;20029;-83
2023/01/17 01:54:53;;;;;;;15.23;5.70;;;;;;;8.17;81.30;95605.88;5304480;27;20079;-83
2023/01/17 01:57:22;;;;;;;18.17;6.18;;;;;;;8.28;81.82;95596.47;5305105;27;20049;-83
2023/01/17 01:59:54;;;;;;;21.40;6.55;;;;;;;7.71;83.95;95597.13;5305853;27;20045;-83
2023/01/17 02:02:21;;;;;;;24.15;6.53;;;;;;;7.96;83.48;95592.81;5304671;27;20060;-83
2023/01/17 02:04:49;;;;;;;25.83;6.22;;;;;;;7.59;85.54;95584.34;5304553;27;20028;-83
2023/01/17 02:07:23;;;;;;;19.30;6.68;;;;;;;7.48;85.77;95591.03;5305627;27;20021;-83
2023/01/17 02:09:50;;;;;;;16.20;6.07;;;;;;;7.36;86.96;95573.13;5286289;27;20053;-83
2023/01/17 02:12:19;;;;;;;18.42;5.87;;;;;;;8.32;83.19;95576.53;5285713;27;20400;-83
2023/01/17 02:14:45;;;;;;;17.10;6.43;;;;;;;8.39;82.26;95577.72;5306092;27;20060;-83
2023/01/17 02:17:29;;;;;;;;;;;;;;;7.82;85.44;95574.09;5306751;27;20053;-83
2023/01/17 02:20:23;;;;;;;19.02;6.55;;;;;;;7.91;85.46;95559.78;5305119;27;20230;-83
2023/01/17 02:23:07;;;;;;;15.98;6.62;;;;;;;7.43;88.33;95559.75;5306321;27;20426;-83
2023/01/17 02:26:09;;;;;;;16.35;7.07;;;;;;;7.38;88.52;95555.88;5306267;27;20477;-83
2023/01/17 02:28:51;;;;;;;14.82;6.28;;;;;;;6.43;94.38;95551.22;5305444;27;20052;-83
2023/01/17 02:31:49;;;;;;;17.45;6.80;;;;;;;7.31;90.66;95549.50;5285491;27;20392;-83
2023/01/17 02:34:24;;;;;;;17.12;7.53;;;;;;;6.90;93.12;95548.03;5305339;27;20129;-83
2023/01/17 02:37:07;;;;;;;18.02;7.57;;;;;;;7.37;91.33;95541.41;5286007;27;20120;-83
2023/01/17 02:39:38;;;;;;;16.98;7.28;;;;;;;7.01;92.27;95537.06;5302768;27;20426;-83
2023/01/17 02:42:09;;;;;;;18.02;6.90;;;;;;;7.46;90.51;95536.47;5304240;27;20095;-83
2023/01/17 02:44:40;;;;;;;15.52;7.03;;;;;;;6.92;94.76;95539.34;5283251;27;20107;-84
2023/01/17 02:47:28;;;;;;;17.58;6.95;;;;;;;6.89;95.06;95542.09;5302439;27;20095;-83
2023/01/17 02:50:04;;;;;;;16.98;6.45;;;;;;;6.67;95.82;95537.59;5302063;27;20049;-83
2023/01/17 02:52:53;;;;;;;12.17;5.10;;;;;;;6.81;96.55;95539.25;5301714;27;20049;-84
2023/01/17 02:55:35;;;;;;;12.10;4.53;;;;;;;7.53;91.21;95529.13;5282594;27;20415;-83
2023/01/17 02:58:21;;;;;;;14.10;5.15;;;;;;;7.15;93.09;95521.56;5302322;27;20057;-84
2023/01/17 03:01:25;;;;;;;12.93;4.70;;;;;;;7.45;91.55;95519.44;5282352;27;20399;-83
2023/01/17 03:04:23;;;;;;;12.88;4.97;;;;;;;8.09;87.83;95522.50;5302361;27;20651;-84
2023/01/17 03:06:54;;;;;;;11.60;4.43;;;;;;;8.73;83.73;95522.09;5302098;27;20072;-84
2023/01/17 03:09:21;;;;;;;11.65;4.43;;;;;;;8.51;84.42;95514.34;5302003;27;20126;-84
2023/01/17 03:11:48;;;;;;;12.43;4.87;;;;;;;7.51;90.22;95518.97;5282046;27;20054;-84
2023/01/17 03:14:15;;;;;;;12.20;4.45;;;;;;;7.83;89.97;95523.56;5301114;27;20053;-84
2023/01/17 03:16:43;;;;;;;10.40;4.00;;;;;;;7.52;91.25;95530.06;5301707;27;20536;-84
2023/01/17 03:19:10;;;;;;;12.07;4.35;;;;;;;7.57;91.23;95525.44;5301587;27;20122;-83
2023/01/17 03:21:36;;;;;;;7.90;2.80;;;;;;;7.63;89.93;95517.28;5301087;27;20549;-84
2023/01/17 03:24:03;;;;;;;9.57;3.40;;;;;;;7.07;93.84;95524.66;5301491;27;20052;-84
2023/01/17 03:26:30;;;;;;;11.00;4.05;;;;;;;7.10;94.22;95527.00;5301447;27;20061;-83
2023/01/17 03:28:57;;;;;;;;;;;;;;;6.82;96.21;95527.25;5301420;27;20087;-84
2023/01/17 03:31:24;;;;;;;11.57;3.78;;;;;;;7.39;92.67;95521.59;5301538;27;19971;-83
2023/01/17 03:33:51;;;;;;;8.82;3.33;;;;;;;8.15;87.70;95526.37;5300875;27;20049;-83
2023/01/17 03:36:19;;;;;;;10.07;3.62;;;;;;;8.22;87.41;95530.12;5301818;27;20094;-84
2023/01/17 03:38:46;;;;;;;9.70;3.70;;;;;;;7.95;88.18;95522.69;5302591;27;20053;-84
2023/01/17 03:41:12;;;;;;;9.80;4.18;;;;;;;7.97;89.13;95532.84;5301987;27;20435;-84
2023/01/17 03:43:39;;;;;;;9.95;3.75;;;;;;;7.63;90.86;95537.81;5282884;27;20084;-84
2023/01/17 03:46:26;;;;;;;8.60;3.37;;;;;;;7.46;91.22;95540.78;5302515;27;20119;-83
2023/01/17 03:48:53;;;;;;;11.43;4.00;;;;;;;6.99;93.83;95536.34;5301912;27;20071;-83
2023/01/17 03:51:20;;;;;;;9.23;3.30;;;;;;;7.07;93.60;95526.37;5302377;27;20770;-84
2023/01/17 03:53:48;;;;;;;9.20;3.50;;;;;;;6.75;95.94;95528.59;5302353;27;20702;-84
2023/01/17 03:56:15;;;;;;;9.35;3.85;;;;;;;7.02;94.32;95538.69;5301976;27;20430;-84
2023/01/17 03:58:42;;;;;;;10.52;4.07;;;;;;;7.21;92.60;95539.06;5302521;27;20118;-84
2023/01/17 04:01:10;;;;;;;11.68;3.90;;;;;;;6.77;95.83;95535.25;5302398;27;20052;-84
2023/01/17 04:03:38;;;;;;;11.32;3.72;;;;;;;7.19;93.17;95530.66;5301896;27;20514;-84
2023/01/17 04:06:05;;;;;;;10.07;3.92;;;;;;;7.05;93.71;95518.81;5302457;27;20122;-84
2023/01/17 04:08:32;;;;;;;10.85;3.50;;;;;;;7.40;92.10;95518.91;5302478;27;20057;-84
2023/01/17 04:10:59;;;;;;;11.65;4.45;;;;;;;7.50;89.97;95519.91;5301922;27;20124;-84
2023/01/17 04:13:26;;;;;;;11.70;3.35;;;;;;;7.56;89.77;95528.94;5302359;27;20057;-84
2023/01/17 04:15:53;;;;;;;;;;;;;;;6.93;92.58;95537.59;5302284;27;20080;-84
2023/01/17 04:18:21;;;;;;;9.80;3.33;;;;;;;6.74;93.99;95539.75;5302550;27;20014;-84
2023/01/17 04:20:49;;;;;;;9.57;2.92;;;;;;;6.74;94.42;95534.63;5302177;27;20428;-84
2023/01/17 04:23:17;;;;;;;9.18;3.30;;;;;;;6.31;96.23;95535.75;5301943;27;20053;-84
2023/01/17 04:25:43;;;;;;;9.90;3.58;;;;;;;6.29;95.51;95545.28;5302365;27;20076;-84
2023/01/17 04:28:11;;;;;;;8.77;2.80;;;;;;;6.15;96.62;95539.41;5302335;27;20122;-84
2023/01/17 04:30:37;;;;;;;9.95;3.40;;;;;;;6.57;94.40;95554.50;5301881;27;20403;-84
2023/01/17 04:33:04;;;;;;;11.93;3.42;;;;;;;6.77;92.57;95557.47;5302229;27;20442;-84
2023/01/17 04:35:32;;;;;;;10.73;3.55;;;;;;;6.66;93.67;95565.87;5302287;27;20072;-84
2023/01/17 04:37:59;;;;;;;9.55;2.92;;;;;;;6.92;91.92;95564.97;5301940;27;20127;-84
2023/01/17 04:40:28;;;;;;;8.55;3.10;;;;;;;6.57;93.75;95559.63;5302061;27;20053;-84
2023/01/17 04:42:58;;;;;;;8.02;2.90;;;;;;;7.02;91.34;95564.31;5302186;27;20082;-84
2023/01/17 04:45:25;;;;;;;8.25;2.95;;;;;;;6.96;90.28;95571.53;5302018;27;20065;-85
2023/01/17 04:47:52;;;;;;;7.07;2.55;;;;;;;6.72;92.27;95569.81;5301891;27;20066;-84
2023/01/17 04:50:18;;;;;;;;;;;;;;;6.53;92.76;95571.00;5302591;27;20057;-84
2023/01/17 04:52:45;;;;;;;6.40;2.00;;;;;;;6.46;91.99;95563.81;5301856;27;19956;-84
2023/01/17 04:55:12;;;;;;;;;;;;;;;6.42;91.44;95565.78;5302505;27;20054;-84
2023/01/17 04:57:39;;;;;;;5.32;1.83;;;;;;;6.09;92.24;95556.81;5302333;27;20326;-84
2023/01/17 05:00:07;;;;;;;3.60;1.80;;;;;;;5.88;93.84;95565.84;5301803;27;20060;-84
2023/01/17 05:02:34;;;;;;;7.18;2.35;;;;;;;5.97;93.96;95575.53;5302401;27;20045;-84
2023/01/17 05:05:01;;;;;;;5.90;1.70;;;;;;;5.82;94.37;95579.00;5301678;27;20422;-84
2023/01/17 05:07:27;;;;;;;;;;;;;;;5.72;94.54;95573.63;5302772;27;20367;-84
2023/01/17 05:09:54;;;;;;;4.60;1.70;;;;;;;6.09;92.10;95582.41;5302178;27;19976;-84
2023/01/17 05:12:21;;;;;;;;;;;;;;;6.35;90.10;95579.91;5302108;27;20058;-84
2023/01/17 05:14:48;;;;;;;3.12;1.40;;;;;;;6.35;89.44;95592.69;5302048;27;19971;-84
2023/01/17 05:17:14;;;;;;;;;;;;;;;6.24;89.73;95595.13;5302641;27;20060;-84
2023/01/17 05:19:41;;;;;;;5.47;1.77;;;;;;;6.51;88.19;95607.91;5301879;27;19960;-84
2023/01/17 05:22:13;;;;;;;;;;;;;;;6.36;88.82;95617.38;5302574;27;20068;-84
2023/01/17 05:24:42;;;;;;;5.12;1.55;;;;;;;6.37;88.89;95622.41;5302212;27;19975;-84
2023/01/17 05:27:10;;;;;;;3.33;1.30;;;;;;;6.53;86.52;95619.69;5301752;27;20115;-84
2023/01/17 05:29:37;;;;;;;4.18;1.50;;;;;;;6.42;86.25;95622.12;5302014;27;20050;-84
2023/01/17 05:32:05;;;;;;;3.35;1.33;;;;;;;6.18;86.89;95633.94;5302135;27;20044;-84
2023/01/17 05:34:32;;;;;;;5.22;1.50;;;;;;;6.10;87.85;95639.56;5301585;27;20057;-83
2023/01/17 05:36:59;;;;;;;2.80;1.20;;;;;;;6.33;86.34;95646.59;5302144;27;20058;-84
2023/01/17 05:39:26;;;;;;;2.45;1.00;;;;;;;6.40;85.43;95653.88;5302024;27;20049;-84
2023/01/17 05:41:52;;;;;;;;;;;;;;;6.14;86.22;95647.84;5301882;27;20529;-84
2023/01/17 05:44:19;;;;;;;2.22;1.15;;;;;;;6.47;85.30;95645.69;5302155;27;19983;-84
2023/01/17 05:46:46;;;;;;;2.58;1.12;;;;;;;6.31;85.22;95656.13;5302062;27;20057;-83
2023/01/17 05:49:13;;;;;;;;;;;;;;;6.05;86.09;95665.41;5301684;27;20064;-84
2023/01/17 05:51:40;;;;;;;3.60;1.40;;;;;;;6.04;86.12;95668.91;5301835;27;19952;-84
2023/01/17 05:54:06;;;;;;;5.35;1.30;;;;;;;5.99;86.04;95677.78;5301533;27;20057;-84
2023/01/17 05:56:33;;;;;;;;;;;;;;;6.29;84.58;95687.87;5302489;27;20116;-84
2023/01/17 05:59:00;;;;;;;2.90;1.25;;;;;;;5.97;85.77;95687.31;5301572;27;19971;-84
2023/01/17 06:01:27;;;;;;;1.60;0.98;;;;;;;6.05;85.17;95695.31;5301552;27;20045;-84
2023/01/17 06:03:54;;;;;;;1.12;0.82;;;;;;;6.29;83.53;95703.22;5302006;27;20064;-84
2023/01/17 06:06:21;;;;;;;1.83;0.80;;;;;;;6.19;82.87;95715.78;5301964;27;20061;-84
2023/01/17 06:08:48;;;;;;;2.80;1.00;;;;;;;5.95;84.15;95724.97;5301679;27;20140;-84
2023/01/17 06:11:15;;;;;;;2.05;0.88;;;;;;;6.49;80.85;95736.09;5301764;27;20053;-84
2023/01/17 06:13:41;;;;;;;1.55;0.88;;;;;;;6.21;81.64;95733.59;5301932;27;20065;-84
2023/01/17 06:16:08;;;;;;;;;;;;;;;6.40;81.34;95735.84;5301936;27;20072;-84
2023/01/17 06:18:35;;;;;;;2.08;0.82;;;;;;;6.57;79.22;95731.28;5301942;27;19960;-84
2023/01/17 06:21:02;;;;;;;;;;;;;;;6.65;78.50;95729.06;5302121;27;20449;-84
2023/01/17 06:23:29;;;;;;;1.55;0.80;;;;;;;6.63;78.33;95736.03;5301480;27;20019;-84
2023/01/17 06:25:56;;;;;;;1.65;1.10;;;;;;;6.83;76.86;95739.06;5301973;27;20465;-84
2023/01/17 06:28:23;;;;;;;1.27;0.88;;;;;;;7.36;74.03;95742.44;5301875;27;20049;-84
2023/01/17 06:30:50;;;;;;;2.10;1.00;;;;;;;7.86;70.72;95744.12;5301176;27;20052;-84
2023/01/17 06:33:17;;;;;;;0.82;0.70;;;;;;;7.83;70.26;95758.00;5301910;27;20061;-84
2023/01/17 06:35:51;;;;;;;3.97;1.30;;;;;;;8.17;68.96;95760.81;5301730;27;20056;-84
2023/01/17 06:38:18;;;;;;;3.97;1.12;;;;;;;8.17;67.97;95765.94;5301599;27;20433;-84
2023/01/17 06:40:45;;;;;;;1.58;0.80;;;;;;;7.25;73.00;95764.47;5301592;27;20045;-84
2023/01/17 06:43:12;;;;;;;1.87;0.68;;;;;;;7.23;72.74;95780.84;5301341;27;20123;-84
2023/01/17 06:45:39;;;;;;;2.72;1.12;;;;;;;6.72;75.19;95775.62;5301818;27;20114;-84
2023/01/17 06:48:06;;;;;;;;;;;;;;;6.65;76.74;95770.06;5303269;27;20057;-85
2023/01/17 06:50:33;;;;;;;2.62;0.90;;;;;;;6.71;77.01;95770.59;5304399;27;19952;-81
2023/01/17 06:53:03;;;;;;;2.92;1.20;;;;;;;7.16;75.04;95761.69;5318431;27;20029;-85
2023/01/17 06:58:35;;;;;;;2.20;0.90;;;;;;;7.25;74.43;95772.16;5360404;26;20035;-85
2023/01/17 07:01:17;;;;;;;3.17;0.85;;;;;;;7.72;70.31;95767.34;5321764;26;20434;-84
2023/01/17 07:03:44;;;;;;;0.75;0.62;;;;;;;7.90;70.28;95786.66;5346179;26;21322;-85
2023/01/17 07:06:11;;;;;;;2.35;1.05;;;;;;;7.39;72.94;95794.34;5342692;26;20426;-83
2023/01/17 07:08:38;;;;;;;1.55;0.95;;;;;;;7.63;71.34;95799.59;5358935;26;20024;-82
2023/01/17 07:11:07;;;;;;;1.83;0.90;;;;;;;7.70;70.99;95815.41;5361572;26;20021;-83
2023/01/17 07:13:37;;;;;;;0.80;0.70;;;;;;;8.00;70.88;95815.09;5363913;26;20074;-82
2023/01/17 07:16:04;;;;;;;2.12;0.80;;;;;;;8.42;69.20;95819.06;5362338;26;20168;-83
2023/01/17 07:18:32;;;;;;;1.45;0.82;;;;;;;9.07;67.99;95823.87;5350680;26;20045;-84
2023/01/17 07:21:00;;;;;;;2.28;0.90;;;;;;;9.28;67.10;95827.47;5351361;26;20391;-82
2023/01/17 07:23:26;;;;;;;1.83;0.60;;;;;;;9.27;67.29;95845.59;5357210;26;20071;-85
2023/01/17 07:25:58;;;;;;;0.75;0.68;;;;;;;9.45;65.68;95844.22;5356829;26;20748;-85
2023/01/17 07:28:26;;;;;;;1.37;0.65;;;;;;;9.95;63.92;95851.72;5363163;26;20058;-83
2023/01/17 07:30:54;;;;;;;1.10;0.60;;;;;;;9.50;64.97;95849.88;5360597;26;20054;-85
2023/01/17 07:33:21;;;;;;;1.87;1.08;;;;;;;10.50;61.65;95850.97;5362177;26;20028;-83
2023/01/17 07:35:48;;;;;;;6.37;2.22;;;;;;;10.45;60.89;95860.81;5364150;26;20078;-83
2023/01/17 07:38:17;;;;;;;3.75;1.30;;;;;;;10.84;58.32;95869.78;5364268;26;20021;-85
2023/01/17 07:44:26;;;;;;;2.15;1.15;;;;;;;8.57;68.37;95868.56;5361956;26;20072;-83
2023/01/17 07:46:53;;;;;;;3.15;1.25;;;;;;;7.12;75.42;95884.13;5359145;26;20410;-83
2023/01/17 07:49:20;;;;;;;3.35;1.58;;;;;;;7.04;76.72;95890.69;5352248;26;20063;-82
2023/01/17 07:51:54;;;;;;;;;;;;;;;7.02;78.40;95883.09;5348625;26;20073;-81
2023/01/17 07:54:21;;;;;;;5.12;2.03;;;;;;;7.50;75.90;95878.31;5348594;26;19967;-81
2023/01/17 07:56:47;;;;;;;6.50;1.87;;;;;;;7.74;76.44;95879.25;5350291;26;20607;-82
2023/01/17 07:59:14;;;;;;;;;;;;;;;8.25;73.01;95878.47;5347838;26;20413;-82
2023/01/17 08:01:41;;;;;;;6.87;2.10;;;;;;;8.21;73.00;95889.88;5346307;26;19955;-83
2023/01/17 08:04:08;;;;;;;3.65;1.60;;;;;;;8.32;73.32;95892.53;5346871;26;20763;-82
2023/01/17 08:06:36;;;;;;;3.30;1.40;;;;;;;7.56;77.10;95889.94;5346280;26;20063;-82
2023/01/17 08:09:03;;;;;;;3.85;1.50;;;;;;;7.73;76.69;95899.91;5327438;26;20052;-81
2023/01/17 08:11:30;;;;;;;4.95;1.67;;;;;;;7.59;77.33;95907.69;5346499;26;20053;-81
2023/01/17 08:13:58;;;;;;;6.32;2.00;;;;;;;7.84;76.36;95910.28;5347135;26;20060;-82
2023/01/17 08:16:27;;;;;;;5.85;1.65;;;;;;;7.74;77.68;95901.53;5346298;26;20070;-84
2023/01/17 08:18:55;;;;;;;4.18;1.58;;;;;;;8.68;73.01;95900.31;5346539;26;20463;-83
2023/01/17 08:21:22;;;;;;;4.62;1.77;;;;;;;8.42;73.90;95903.06;5345622;26;20107;-83
2023/01/17 08:23:50;;;;;;;4.53;1.55;;;;;;;8.53;73.76;95898.81;5346466;26;20068;-83
2023/01/17 08:26:22;;;;;;;5.55;1.73;;;;;;;8.60;73.14;95905.16;5346446;26;20052;-82
2023/01/17 08:29:01;;;;;;;4.05;1.60;;;;;;;8.92;71.65;95908.06;5346336;26;20454;-82
2023/01/17 08:31:30;;;;;;;4.55;1.60;;;;;;;8.85;72.69;95917.16;5346490;26;20097;-82
2023/01/17 08:33:57;;;;;;;6.37;2.25;;;;;;;8.34;74.59;95919.81;5346342;26;20060;-82
2023/01/17 08:36:24;;;;;;;4.62;1.90;;;;;;;8.80;75.92;95926.09;5346096;26;20493;-82
2023/01/17 08:38:51;;;;;;;4.82;2.03;;;;;;;9.53;71.70;95919.16;5326715;26;20052;-83
2023/01/17 08:41:19;;;;;;;5.18;1.70;;;;;;;9.64;68.40;95905.50;5345806;26;20100;-83
2023/01/17 08:43:50;;;;;;;5.45;2.08;;;;;;;10.26;66.40;95901.81;5345942;26;20060;-82
2023/01/17 08:46:18;;;;;;;6.60;2.25;;;;;;;10.43;66.12;95901.37;5326789;26;20071;-82
2023/01/17 08:48:45;;;;;;;5.80;2.28;;;;;;;9.86;68.31;95913.28;5346401;26;20048;-84
2023/01/17 08:51:12;;;;;;;5.32;1.85;;;;;;;10.75;63.80;95916.94;5346011;26;20105;-86
2023/01/17 08:53:39;;;;;;;5.05;1.73;;;;;;;10.87;63.82;95928.09;5346651;26;20056;-86
2023/01/17 08:56:06;;;;;;;3.90;1.60;;;;;;;11.55;60.02;95922.63;5346440;26;20481;-84
2023/01/17 08:58:34;;;;;;;4.12;1.73;;;;;;;12.16;57.85;95916.84;5326736;26;20052;-84
2023/01/17 09:01:03;;;;;;;4.25;1.65;;;;;;;12.55;55.32;95914.47;5345972;26;20395;-84
2023/01/17 09:03:31;;;;;;;3.65;1.55;;;;;;;12.66;55.04;95915.22;5345637;26;20067;-85
2023/01/17 09:06:05;;;;;;;3.87;1.50;;;;;;;13.04;53.27;95916.28;5346022;26;20055;-85
2023/01/17 09:08:32;;;;;;;4.50;1.48;;;;;;;13.58;51.44;95933.16;5346556;26;20383;-83
2023/01/17 09:11:11;;;;;;;3.40;1.30;;;;;;;12.76;55.97;95943.72;5345784;26;20056;-83
2023/01/17 09:13:38;;;;;;;4.18;1.65;;;;;;;13.32;55.61;95953.59;5327220;26;20070;-83
2023/01/17 09:16:06;;;;;;;2.47;1.10;;;;;;;13.02;57.61;95962.19;5348585;26;20115;-84
2023/01/17 09:18:34;;;;;;;4.87;1.40;;;;;;;12.39;57.96;95971.81;5349736;26;20048;-84
2023/01/17 09:21:15;;;;;;;3.85;1.77;;;;;;;12.45;58.31;95974.75;5351455;26;20068;-84
2023/01/17 09:23:43;;;;;;;3.75;1.60;;;;;;;12.08;58.82;95981.28;5348368;26;20071;-83
2023/01/17 09:26:24;;;;;;;3.47;1.50;;;;;;;11.73;60.86;95984.91;5347148;26;20320;-82
2023/01/17 09:28:52;;;;;;;3.03;1.05;;;;;;;11.38;62.67;95974.81;5349681;26;20327;-82
2023/01/17 09:31:20;;;;;;;2.67;1.23;;;;;;;11.97;61.18;95971.00;5345787;26;20096;-83
2023/01/17 09:33:48;;;;;;;4.53;1.35;;;;;;;11.67;60.53;95969.06;5345536;26;20316;-83
2023/01/17 09:36:15;;;;;;;3.60;1.30;;;;;;;11.79;60.31;95968.09;5346227;26;20052;-83
2023/01/17 09:38:42;;;;;;;3.28;1.30;;;;;;;11.92;59.22;95968.78;5345854;26;20044;-82
2023/01/17 09:41:20;;;;;;;2.65;1.20;;;;;;;11.79;60.51;95979.28;5346005;26;20460;-81
2023/01/17 09:44:03;;;;;;;3.47;1.30;;;;;;;12.19;59.12;95978.63;5326519;26;20064;-82
2023/01/17 09:46:36;;;;;;;3.58;1.30;;;;;;;13.36;54.44;95975.66;5345795;26;20125;-83
2023/01/17 09:49:08;;;;;;;2.47;1.20;;;;;;;13.23;55.22;95964.75;5326700;26;20056;-84
2023/01/17 09:51:35;;;;;;;3.03;1.12;;;;;;;14.19;52.36;95964.81;5347191;26;20493;-84
2023/01/17 09:54:02;;;;;;;2.87;1.00;;;;;;;15.58;47.83;95958.84;5330034;26;20706;-84
2023/01/17 09:56:40;;;;;;;2.10;1.30;;;;;;;16.04;45.89;95941.41;5350222;26;20060;-83
2023/01/17 09:59:26;;;;;;;2.25;1.10;;;;;;;15.97;44.93;95940.38;5328256;26;20059;-84
2023/01/17 10:02:29;;;;;;;2.42;1.15;;;;;;;15.90;45.54;95935.78;5334804;26;20099;-84
2023/01/17 10:05:15;;;;;;;2.92;1.20;;;;;;;16.94;44.04;95929.81;5359572;26;20104;-85
2023/01/17 10:08:10;;;;;;;2.65;1.35;;;;;;;17.34;43.54;95916.94;5361356;26;20059;-84
2023/01/17 10:10:42;;;;;;;2.72;1.20;;;;;;;18.49;40.82;95912.59;5337799;26;20053;-81
2023/01/17 10:13:35;;;;;;;3.45;1.35;;;;;;;19.02;39.31;95903.31;5335266;26;20044;-81
2023/01/17 10:16:07;;;;;;;4.68;1.65;;;;;;;17.60;41.83;95895.13;5353609;26;20035;-81
2023/01/17 10:18:54;;;;;;;3.17;1.50;;;;;;;16.61;43.03;95893.19;5333706;26;20028;-81
2023/01/17 10:21:28;;;;;;;4.68;1.73;;;;;;;19.42;37.47;95893.66;5336007;26;20049;-81
2023/01/17 10:24:15;;;;;;;5.00;1.90;;;;;;;18.37;38.67;95891.22;5351324;26;20406;-81
2023/01/17 10:26:45;;;;;;;6.00;2.45;;;;;;;17.58;42.13;95892.69;5331439;26;20091;-81
2023/01/17 10:29:17;;;;;;;4.47;1.50;;;;;;;19.70;37.54;95891.38;5347731;26;20025;-80
2023/01/17 10:31:58;;;;;;;5.47;1.80;;;;;;;17.64;40.05;95880.78;5346324;26;20052;-80
2023/01/17 10:34:41;;;;;;;2.62;1.37;;;;;;;16.44;43.15;95874.03;5346983;26;20089;-80
2023/01/17 10:37:23;;;;;;;3.03;1.50;;;;;;;16.03;42.75;95882.56;5348570;26;20110;-81
2023/01/17 10:39:53;;;;;;;3.37;1.60;;;;;;;16.25;45.25;95884.66;5327983;26;20068;-81
2023/01/17 10:42:40;;;;;;;4.43;1.70;;;;;;;15.71;44.52;95881.31;5326212;26;20414;-80
2023/01/17 10:45:20;;;;;;;4.03;1.58;;;;;;;15.39;43.63;95883.59;5333034;26;20025;-80
2023/01/17 10:47:50;;;;;;;3.53;1.20;;;;;;;15.62;44.53;95874.41;5336314;26;20079;-80
2023/01/17 10:50:18;;;;;;;3.12;1.40;;;;;;;14.83;44.71;95869.03;5331792;26;20033;-81
2023/01/17 10:53:16;;;;;;;4.07;1.37;;;;;;;14.57;44.47;95877.50;5333047;26;20057;-80
2023/01/17 10:55:54;;;;;;;4.80;1.70;;;;;;;15.38;43.55;95868.97;5325501;26;20044;-80
2023/01/17 10:58:21;;;;;;;3.47;1.23;;;;;;;14.80;44.75;95872.75;5348241;26;20060;-79
2023/01/17 11:00:52;;;;;;;5.10;1.80;;;;;;;15.26;43.57;95861.41;5347206;26;20060;-80
2023/01/17 11:03:20;;;;;;;3.97;1.60;;;;;;;15.38;43.81;95867.19;5328316;26;20057;-79
2023/01/17 11:06:22;;;;;;;4.28;1.42;;;;;;;14.40;47.66;95857.44;5344276;26;20049;-79
2023/01/17 11:08:57;;;;;;;4.28;1.40;;;;;;;14.18;46.89;95864.63;5346663;26;20061;-79
2023/01/17 11:11:30;;;;;;;2.62;1.08;;;;;;;13.52;46.16;95863.78;5326637;26;20127;-79
2023/01/17 11:13:59;;;;;;;5.72;1.00;;;;;;;13.44;45.74;95864.44;5327038;26;20102;-79
2023/01/17 11:16:30;;;;;;;3.45;1.00;;;;;;;12.96;46.76;95867.75;5346559;26;20520;-79
2023/01/17 11:19:25;;;;;;;3.60;1.17;;;;;;;12.87;46.99;95870.34;5346404;26;20116;-79
2023/01/17 11:21:56;;;;;;;4.72;1.20;;;;;;;12.85;47.94;95874.81;5324201;26;20332;-79
2023/01/17 11:24:34;;;;;;;7.30;2.33;;;;;;;12.55;47.23;95876.50;5326943;26;20063;-79
2023/01/17 11:27:03;;;;;;;6.90;2.50;;;;;;;12.36;50.60;95864.28;5326958;26;20049;-79
2023/01/17 11:29:36;;;;;;;7.65;2.22;;;;;;;13.21;47.50;95855.28;5346777;26;20116;-79
2023/01/17 11:32:31;;;;;;;7.20;2.03;;;;;;;13.30;47.42;95860.50;5346142;26;20090;-79
2023/01/17 11:35:16;;;;;;;7.12;2.50;;;;;;;13.51;47.50;95864.72;5335647;26;20057;-79
2023/01/17 11:37:48;;;;;;;5.03;1.90;;;;;;;12.30;48.92;95869.16;5346611;26;20094;-79
2023/01/17 11:40:29;;;;;;;5.03;1.50;;;;;;;12.14;49.08;95861.87;5346463;26;20065;-79
2023/01/17 11:43:20;;;;;;;8.48;2.28;;;;;;;11.03;52.21;95851.09;5326739;26;20422;-79
2023/01/17 11:46:16;;;;;;;4.70;1.90;;;;;;;11.95;51.24;95852.25;5333524;26;20048;-79
2023/01/17 11:48:54;;;;;;;5.75;2.00;;;;;;;12.91;50.38;95851.81;5346756;26;20056;-79
2023/01/17 11:51:29;;;;;;;8.20;2.87;;;;;;;12.97;48.43;95856.47;5346464;26;20109;-79
2023/01/17 11:54:20;;;;;;;9.52;3.22;;;;;;;12.75;49.21;95851.47;5326583;26;20619;-79
2023/01/17 11:56:49;;;;;;;8.05;2.60;;;;;;;11.53;52.10;95844.47;5326565;26;20048;-79
2023/01/17 11:59:29;;;;;;;6.80;2.17;;;;;;;11.89;51.19;95834.66;5326757;26;20052;-79
2023/01/17 12:02:33;;;;;;;7.03;2.17;;;;;;;11.75;51.83;95822.84;5326839;26;20065;-79
2023/01/17 12:05:19;;;;;;;6.30;2.03;;;;;;;11.70;53.24;95817.25;5346489;26;20094;-79
2023/01/17 12:08:08;;;;;;;8.15;2.40;;;;;;;12.37;51.09;95814.22;5345906;26;20117;-79
2023/01/17 12:10:53;;;;;;;5.97;2.20;;;;;;;12.07;53.67;95803.88;5346522;26;20378;-79
2023/01/17 12:14:01;;;;;;;7.22;2.70;;;;;;;11.51;55.05;95794.72;5346144;26;20057;-79
2023/01/17 12:16:56;;;;;;;7.27;2.10;;;;;;;11.83;54.94;95799.00;5328345;26;20157;-79
2023/01/17 12:19:33;;;;;;;7.07;2.10;;;;;;;10.66;56.90;95797.25;5346569;26;20083;-79
2023/01/17 12:22:09;;;;;;;6.70;2.37;;;;;;;11.16;56.24;95797.56;5326303;26;20486;-79
2023/01/17 12:25:05;;;;;;;7.82;2.42;;;;;;;10.87;57.63;95804.25;5346377;26;20071;-79
2023/01/17 12:27:50;;;;;;;10.50;3.20;;;;;;;11.27;56.73;95802.69;5346077;26;20062;-79
2023/01/17 12:30:47;;;;;;;9.80;3.03;;;;;;;11.46;57.86;95809.75;5346399;26;20106;-79
2023/01/17 12:33:44;;;;;;;10.15;3.42;;;;;;;11.32;57.54;95793.75;5346370;26;20059;-79
2023/01/17 12:36:25;;;;;;;7.07;2.67;;;;;;;11.30;58.04;95799.84;5345973;26;20698;-79
2023/01/17 12:38:52;;;;;;;6.57;2.42;;;;;;;10.63;59.11;95800.09;5346596;26;20056;-79
2023/01/17 12:41:30;;;;;;;9.20;3.10;;;;;;;10.71;60.40;95802.03;5345919;26;20052;-78
2023/01/17 12:43:58;;;;;;;9.02;3.62;;;;;;;10.56;61.65;95803.25;5346765;26;20063;-78
2023/01/17 12:46:37;;;;;;;10.07;3.83;;;;;;;10.81;62.11;95799.56;5346227;26;20071;-78
2023/01/17 12:49:27;;;;;;;9.02;3.05;;;;;;;10.71;63.28;95794.31;5346067;26;20071;-78
2023/01/17 12:52:04;;;;;;;7.03;2.47;;;;;;;10.08;65.06;95791.41;5326660;26;20066;-77
2023/01/17 12:54:40;;;;;;;6.07;2.33;;;;;;;10.00;64.72;95783.47;5326288;26;20044;-78
2023/01/17 12:57:43;;;;;;;10.02;3.00;;;;;;;9.92;65.46;95782.41;5326265;26;20075;-77
2023/01/17 13:00:22;;;;;;;8.88;2.75;;;;;;;10.68;63.04;95771.34;5326585;26;20063;-78
2023/01/17 13:03:01;;;;;;;8.40;2.95;;;;;;;10.66;62.99;95776.63;5345821;26;20094;-78
2023/01/17 13:05:40;;;;;;;8.75;2.92;;;;;;;10.30;64.83;95766.59;5346436;26;20413;-78
2023/01/17 13:08:33;;;;;;;10.85;3.15;;;;;;;10.44;65.22;95771.53;5345799;26;20082;-78
2023/01/17 13:11:26;;;;;;;8.27;3.20;;;;;;;9.83;68.35;95773.63;5347577;26;20071;-78
2023/01/17 13:13:56;;;;;;;9.70;3.05;;;;;;;10.22;66.38;95763.84;5346214;26;20093;-78
2023/01/17 13:16:34;;;;;;;9.32;3.25;;;;;;;9.78;68.46;95742.25;5345910;26;20105;-78
2023/01/17 13:19:13;;;;;;;10.23;3.62;;;;;;;9.87;67.94;95738.97;5326631;26;20063;-78
2023/01/17 13:21:41;;;;;;;10.85;3.60;;;;;;;9.41;70.38;95724.44;5326422;26;20117;-78
2023/01/17 13:24:19;;;;;;;11.15;4.00;;;;;;;9.69;68.71;95714.62;5345801;26;20106;-78
2023/01/17 13:26:49;;;;;;;10.35;3.85;;;;;;;9.57;70.01;95704.34;5326751;26;20403;-78
2023/01/17 13:29:28;;;;;;;11.77;4.05;;;;;;;9.57;70.00;95704.34;5346072;26;20101;-78
2023/01/17 13:32:09;;;;;;;14.07;4.40;;;;;;;9.30;71.78;95695.28;5345792;26;20061;-78
2023/01/17 13:34:43;;;;;;;11.10;3.75;;;;;;;9.61;71.08;95678.34;5326458;26;20113;-79
2023/01/17 13:37:33;;;;;;;10.02;3.50;;;;;;;9.82;70.66;95679.28;5326009;26;20045;-79
2023/01/17 13:40:30;;;;;;;9.43;3.22;;;;;;;9.79;71.04;95674.38;5346058;26;20130;-79